Time;durP1;ratioP1;P1;durP2;ratioP2;P2;SDS_P1;SDS_P2;PMS_P1;PMS_P2;Temp;Humidity;BMP_temperature;BMP_pressure;BME280_temperature;BME280_humidity;BME280_pressure;Samples;Min_cycle;Max_cycle;Signal;HPM_P1;HPM_P2
2022/07/16 00:04:18;;;;;;;3.10;1.10;;;;;;;17.31;78.38;101654.50;20830219;28;20502;-60
2022/07/16 00:14:40;;;;;;;2.08;1.17;;;;;;;17.27;79.00;101639.84;20836339;28;20394;-60
2022/07/16 00:25:03;;;;;;;2.80;1.15;;;;;;;17.31;78.16;101636.06;20836993;28;20405;-61
2022/07/16 00:35:27;;;;;;;3.67;1.00;;;;;;;17.28;77.71;101635.41;20849524;28;20045;-61
2022/07/16 00:45:49;;;;;;;4.70;1.35;;;;;;;17.18;77.83;101614.19;20855412;28;20041;-60
2022/07/16 00:56:13;;;;;;;2.92;1.10;;;;;;;17.19;77.79;101615.06;20852919;28;20391;-60
2022/07/16 01:06:37;;;;;;;1.90;1.00;;;;;;;17.18;77.52;101613.38;20847496;28;20063;-60
2022/07/16 01:16:58;;;;;;;2.47;1.08;;;;;;;17.10;79.13;101611.34;20864849;28;20060;-60
2022/07/16 01:27:20;;;;;;;2.40;1.30;;;;;;;16.96;81.71;101611.59;20845719;28;20057;-60
2022/07/16 01:37:42;;;;;;;2.50;1.58;;;;;;;16.57;85.01;101612.06;20848126;28;20052;-61
2022/07/16 01:48:04;;;;;;;;;;;;;;;16.30;95.98;101623.00;20829221;28;20496;-60
2022/07/16 01:58:26;;;;;;;;;;;;;;;16.25;96.98;101631.19;20849115;28;19921;-61
2022/07/16 02:08:47;;;;;;;4.35;1.90;;;;;;;16.13;92.53;101631.31;20850325;28;19968;-60
2022/07/16 02:19:09;;;;;;;;;;;;;;;16.21;99.60;101636.81;20841802;28;20049;-61
2022/07/16 02:29:30;;;;;;;3.30;2.00;;;;;;;16.16;91.38;101633.69;20839251;28;19921;-60
2022/07/16 02:39:52;;;;;;;3.35;2.28;;;;;;;16.14;92.25;101630.34;20849139;28;20049;-60
2022/07/16 02:50:13;;;;;;;;;;;;;;;16.24;100.00;101641.84;20838233;28;20037;-60
2022/07/16 03:00:35;;;;;;;6.07;2.20;;;;;;;16.08;93.98;101643.94;20833858;28;19921;-60
2022/07/16 03:10:57;;;;;;;3.67;2.08;;;;;;;15.97;94.98;101660.50;20846708;28;20171;-61
2022/07/16 03:21:18;;;;;;;;;;;;;;;16.01;100.00;101669.03;20839750;28;20045;-61
2022/07/16 03:31:40;;;;;;;7.97;1.83;;;;;;;15.86;96.53;101675.44;20843374;28;19921;-61
2022/07/16 03:42:01;;;;;;;3.75;1.50;;;;;;;15.79;97.01;101684.69;20839398;28;20311;-60
2022/07/16 03:52:23;;;;;;;;;;;;;;;15.81;100.00;101696.78;20846563;28;20072;-60
2022/07/16 04:02:44;;;;;;;4.37;1.60;;;;;;;15.66;98.02;101699.69;20854428;28;19928;-60
2022/07/16 04:13:06;;;;;;;5.35;1.67;;;;;;;15.74;96.18;101697.31;20851877;28;20069;-61
2022/07/16 04:23:27;;;;;;;;;;;;;;;15.86;100.00;101701.72;20835637;28;20042;-61
2022/07/16 04:33:49;;;;;;;4.27;1.43;;;;;;;15.78;95.72;101720.69;20854188;28;19924;-62
2022/07/16 04:44:11;;;;;;;10.52;1.60;;;;;;;15.78;94.18;101725.09;20853542;28;20292;-61
2022/07/16 04:54:33;;;;;;;;;;;;;;;15.77;100.00;101736.53;20848541;28;20546;-62
2022/07/16 05:04:54;;;;;;;;;;;;;;;15.82;100.00;101743.16;20849607;28;19943;-63
2022/07/16 05:15:16;;;;;;;2.95;1.25;;;;;;;15.81;94.49;101751.16;20852601;28;19927;-62
2022/07/16 05:25:38;;;;;;;4.20;1.27;;;;;;;15.90;93.80;101771.53;20847891;28;20041;-62
2022/07/16 05:35:59;;;;;;;;;;;;;;;16.04;96.51;101784.53;20850238;28;20053;-63
2022/07/16 05:46:21;;;;;;;13.77;1.40;;;;;;;16.23;91.15;101800.69;20850232;28;20019;-61
2022/07/16 05:56:43;;;;;;;3.97;1.10;;;;;;;16.42;86.13;101792.22;20829050;28;20048;-61
2022/07/16 06:07:04;;;;;;;;;;;;;;;16.79;92.63;101814.03;20832714;28;20041;-61
2022/07/16 06:17:26;;;;;;;6.47;1.33;;;;;;;17.01;87.84;101816.72;20827179;28;19925;-59
2022/07/16 06:27:47;;;;;;;4.15;0.90;;;;;;;16.99;85.97;101837.94;20821906;28;20048;-61
2022/07/16 06:38:09;;;;;;;;;;;;;;;16.70;86.40;101865.59;20830777;28;20498;-61
2022/07/16 06:48:30;;;;;;;;;;;;;;;17.05;89.22;101866.44;20810724;28;19928;-60
2022/07/16 06:58:52;;;;;;;8.70;0.90;;;;;;;16.94;77.40;101884.84;20830849;28;20019;-60
2022/07/16 07:09:14;;;;;;;7.90;1.10;;;;;;;17.23;76.48;101907.22;20824228;28;20037;-62
2022/07/16 07:19:35;;;;;;;8.25;0.93;;;;;;;17.54;73.47;101919.81;20830463;28;20490;-62
2022/07/16 07:29:57;;;;;;;7.75;1.10;;;;;;;17.67;71.29;101931.97;20810661;28;20045;-64
2022/07/16 07:40:19;;;;;;;6.25;1.10;;;;;;;17.93;71.27;101935.22;20838778;28;20049;-64
2022/07/16 07:50:41;;;;;;;5.53;0.70;;;;;;;18.34;69.54;101940.81;20829451;28;20410;-63
2022/07/16 08:01:02;;;;;;;5.88;0.90;;;;;;;18.40;69.72;101964.94;20829675;28;20045;-62
2022/07/16 08:11:44;;;;;;;4.60;0.85;;;;;;;17.87;70.18;101991.94;20818879;28;20956;-60
2022/07/16 08:22:05;;;;;;;6.22;1.20;;;;;;;18.10;70.14;101990.19;20820328;28;20044;-61
2022/07/16 08:32:27;;;;;;;5.57;1.05;;;;;;;18.00;70.10;101983.94;20825471;28;20049;-61
2022/07/16 08:42:50;;;;;;;5.15;0.70;;;;;;;18.35;68.78;101993.47;20833474;28;20127;-61
2022/07/16 08:53:12;;;;;;;3.35;0.55;;;;;;;18.49;66.79;102011.72;20829081;28;20033;-61
2022/07/16 09:03:34;;;;;;;8.82;0.90;;;;;;;18.95;65.19;102034.38;20827046;28;20051;-60
2022/07/16 09:14:04;;;;;;;3.30;0.65;;;;;;;19.29;60.18;102030.72;20844961;28;20136;-60
2022/07/16 09:24:34;;;;;;;3.45;0.80;;;;;;;19.38;57.39;102035.25;20848628;28;20077;-62
2022/07/16 09:35:01;;;;;;;8.95;0.90;;;;;;;19.30;62.86;102058.84;20843692;28;20051;-61
2022/07/16 09:45:23;;;;;;;6.55;0.85;;;;;;;19.10;64.71;102070.16;20843318;28;20049;-61
2022/07/16 09:56:03;;;;;;;7.88;0.88;;;;;;;19.14;60.29;102076.91;20845577;28;20599;-61
2022/07/16 10:06:26;;;;;;;7.27;0.70;;;;;;;19.49;64.59;102083.69;20846423;28;20497;-60
2022/07/16 10:16:48;;;;;;;4.60;0.70;;;;;;;19.44;64.77;102096.44;20843561;28;20049;-61
2022/07/16 10:27:21;;;;;;;4.00;0.68;;;;;;;19.18;60.03;102120.66;20847293;28;20049;-62
2022/07/16 10:37:43;;;;;;;9.50;1.17;;;;;;;19.14;67.34;102128.97;20857427;28;20067;-60
2022/07/16 10:48:37;;;;;;;6.40;0.82;;;;;;;19.11;66.59;102150.34;20843878;28;20053;-62
2022/07/16 10:58:59;;;;;;;6.20;0.80;;;;;;;19.26;65.37;102157.09;20819548;28;20069;-62
2022/07/16 11:09:30;;;;;;;5.13;1.00;;;;;;;19.50;65.57;102156.78;20821079;28;20042;-61
2022/07/16 11:19:57;;;;;;;4.37;0.83;;;;;;;19.41;63.74;102170.78;20827751;28;20547;-62
2022/07/16 11:30:19;;;;;;;4.70;0.80;;;;;;;20.15;63.53;102168.19;20826240;28;20041;-65
2022/07/16 11:40:41;;;;;;;3.78;0.70;;;;;;;20.21;62.62;102172.13;20810231;28;20049;-65
2022/07/16 11:51:06;;;;;;;4.15;0.70;;;;;;;20.94;58.59;102173.72;20830981;28;20128;-66
2022/07/16 12:01:33;;;;;;;4.07;0.82;;;;;;;21.57;56.89;102168.94;20823105;28;20077;-63
2022/07/16 12:11:59;;;;;;;4.43;1.00;;;;;;;21.14;55.90;102192.25;20817085;28;20129;-64
2022/07/16 12:22:49;;;;;;;9.57;1.30;;;;;;;20.57;56.81;102212.28;20811973;28;20053;-63
2022/07/16 12:33:27;;;;;;;;;;;;;;;20.43;58.91;102217.88;20856270;28;20104;-62
2022/07/16 12:43:54;;;;;;;4.60;0.90;;;;;;;20.43;59.73;102226.66;20842421;28;20027;-63
2022/07/16 12:54:16;;;;;;;12.40;1.98;;;;;;;20.29;62.37;102227.94;20821651;28;20080;-63
2022/07/16 13:04:38;;;;;;;3.70;0.70;;;;;;;20.39;58.59;102246.44;20838369;28;20590;-62
2022/07/16 13:15:01;;;;;;;3.15;0.85;;;;;;;20.37;57.16;102247.53;20861975;28;20057;-62
2022/07/16 13:25:22;;;;;;;4.13;0.60;;;;;;;20.28;54.28;102269.50;20837844;28;20819;-64
2022/07/16 13:35:45;;;;;;;3.42;0.75;;;;;;;20.48;56.44;102266.88;20834011;28;20057;-65
2022/07/16 13:46:08;;;;;;;2.38;0.70;;;;;;;20.49;56.23;102263.25;20815248;28;20069;-61
2022/07/16 13:56:30;;;;;;;3.03;0.70;;;;;;;20.62;60.49;102263.91;20839854;28;20056;-65
2022/07/16 14:06:52;;;;;;;4.40;0.70;;;;;;;20.93;57.81;102284.28;20804993;28;20041;-64
2022/07/16 14:17:14;;;;;;;5.07;0.80;;;;;;;20.96;57.33;102273.38;20822299;28;20041;-64
2022/07/16 14:27:35;;;;;;;2.22;0.65;;;;;;;21.02;58.15;102283.47;20814270;28;20124;-63
2022/07/16 14:37:57;;;;;;;4.10;0.85;;;;;;;20.65;56.48;102294.63;20812364;28;20509;-63
2022/07/16 14:48:18;;;;;;;6.05;0.90;;;;;;;20.83;60.39;102280.69;20830660;28;20041;-65
2022/07/16 14:58:40;;;;;;;2.30;0.70;;;;;;;20.84;56.53;102279.72;20810590;28;20053;-63
2022/07/16 15:09:02;;;;;;;6.78;0.85;;;;;;;20.98;56.29;102282.06;20814923;28;20076;-63
2022/07/16 15:19:25;;;;;;;5.78;1.15;;;;;;;20.77;60.49;102299.75;20804127;28;20049;-63
2022/07/16 15:29:46;;;;;;;7.22;1.05;;;;;;;20.72;61.62;102299.28;20798191;28;20080;-62
2022/07/16 15:40:09;;;;;;;5.32;1.08;;;;;;;20.57;60.64;102303.22;20793068;28;20407;-63
2022/07/16 15:50:31;;;;;;;7.97;1.17;;;;;;;20.58;59.61;102312.84;20798516;28;20067;-62
2022/07/16 16:00:53;;;;;;;6.10;0.80;;;;;;;20.97;61.03;102308.72;20826308;28;20045;-63
2022/07/16 16:11:14;;;;;;;7.00;0.77;;;;;;;21.03;59.97;102322.28;20836339;28;20041;-64
2022/07/16 16:21:36;;;;;;;5.75;0.80;;;;;;;21.44;55.99;102316.94;20814153;28;20049;-63
2022/07/16 16:31:58;;;;;;;7.68;1.10;;;;;;;21.40;59.17;102326.13;20829575;28;20053;-63
2022/07/16 16:42:20;;;;;;;7.30;1.30;;;;;;;21.42;58.57;102324.19;20829380;28;20053;-63
2022/07/16 16:52:42;;;;;;;2.85;0.80;;;;;;;21.92;56.90;102323.34;20819422;28;20132;-63
2022/07/16 17:03:05;;;;;;;4.03;0.80;;;;;;;22.17;57.67;102333.47;20812600;28;20792;-63
2022/07/16 17:13:26;;;;;;;5.82;0.90;;;;;;;21.81;58.80;102331.41;20836458;28;20431;-64
2022/07/16 17:23:48;;;;;;;2.70;0.77;;;;;;;21.74;60.17;102330.25;20822902;28;20084;-64
2022/07/16 17:34:10;;;;;;;4.07;0.90;;;;;;;22.20;60.30;102341.16;20823206;28;20050;-63
2022/07/16 17:44:31;;;;;;;5.05;0.88;;;;;;;21.70;62.40;102355.38;20826339;28;20054;-64
2022/07/16 17:54:55;;;;;;;3.72;0.70;;;;;;;21.50;58.25;102364.22;20828746;28;20722;-63
2022/07/16 18:05:17;;;;;;;2.45;0.63;;;;;;;20.73;61.71;102377.84;20831401;28;20044;-64
2022/07/16 18:15:38;;;;;;;2.88;0.93;;;;;;;20.24;61.49;102378.44;20817054;28;20049;-62
2022/07/16 18:26:01;;;;;;;5.25;1.27;;;;;;;20.15;62.67;102384.50;20824175;28;20045;-62
2022/07/16 18:36:23;;;;;;;2.47;0.98;;;;;;;19.95;63.20;102398.41;20807946;28;20128;-62
2022/07/16 18:46:44;;;;;;;2.97;0.75;;;;;;;19.74;62.96;102400.09;20831911;28;20418;-63
2022/07/16 18:57:07;;;;;;;5.03;1.00;;;;;;;19.48;63.78;102398.63;20847542;28;20049;-62
2022/07/16 19:07:29;;;;;;;3.88;1.05;;;;;;;19.34;64.17;102396.19;20823412;28;20385;-62
2022/07/16 19:17:50;;;;;;;4.22;0.98;;;;;;;19.24;64.76;102404.94;20817050;28;20053;-62
2022/07/16 19:28:13;;;;;;;8.77;0.90;;;;;;;19.03;65.52;102411.78;20818160;28;20042;-63
2022/07/16 19:38:35;;;;;;;4.75;0.95;;;;;;;18.83;66.33;102429.13;20822506;28;20061;-61
2022/07/16 19:48:57;;;;;;;4.50;0.93;;;;;;;18.66;66.65;102440.06;20844791;28;20041;-61
2022/07/16 19:59:19;;;;;;;4.63;1.10;;;;;;;18.38;66.57;102435.09;20820166;28;20052;-60
2022/07/16 20:09:40;;;;;;;4.43;1.00;;;;;;;18.30;67.29;102452.44;20815501;28;20051;-61
2022/07/16 20:20:05;;;;;;;5.93;1.00;;;;;;;18.15;67.18;102455.28;20818400;28;20072;-61
2022/07/16 20:30:29;;;;;;;7.53;1.05;;;;;;;17.98;67.40;102450.34;20819161;28;20051;-61
2022/07/16 20:40:50;;;;;;;7.15;1.23;;;;;;;17.91;67.66;102454.34;20821765;28;20060;-61
2022/07/16 20:51:12;;;;;;;8.20;1.40;;;;;;;17.73;67.66;102460.91;20837052;28;20056;-61
2022/07/16 21:01:34;;;;;;;11.43;1.83;;;;;;;17.52;68.32;102462.34;20831981;28;20087;-61
2022/07/16 21:11:57;;;;;;;6.55;1.60;;;;;;;17.50;68.38;102470.38;20841961;28;20075;-61
2022/07/16 21:22:19;;;;;;;6.03;1.10;;;;;;;17.30;68.40;102459.47;20835082;28;20051;-62
2022/07/16 21:32:41;;;;;;;8.32;1.45;;;;;;;17.08;68.58;102474.94;20829283;28;20664;-61
2022/07/16 21:43:03;;;;;;;5.35;1.15;;;;;;;16.92;68.90;102482.16;20841583;28;20517;-61
2022/07/16 21:53:25;;;;;;;5.03;1.65;;;;;;;16.74;69.19;102493.88;20847960;28;20129;-61
2022/07/16 22:03:46;;;;;;;7.22;1.13;;;;;;;16.42;69.99;102497.69;20842853;28;20402;-61
2022/07/16 22:14:28;;;;;;;8.98;1.30;;;;;;;16.41;69.85;102505.66;20840568;28;20045;-61
2022/07/16 22:24:49;;;;;;;9.98;1.40;;;;;;;16.16;70.77;102496.72;20837655;28;20044;-62
2022/07/16 22:35:13;;;;;;;6.00;1.73;;;;;;;16.11;70.70;102498.78;20839482;28;20092;-61
2022/07/16 22:45:34;;;;;;;4.88;1.60;;;;;;;15.96;71.09;102499.72;20821398;28;20047;-62
2022/07/16 22:55:56;;;;;;;9.45;1.67;;;;;;;16.01;70.83;102490.59;20840044;28;20041;-61
2022/07/16 23:06:17;;;;;;;;;;;;;;;16.01;73.29;102484.50;20841886;28;20064;-61
2022/07/16 23:16:39;;;;;;;8.23;1.80;;;;;;;15.96;72.10;102476.88;20833559;28;19921;-61
2022/07/16 23:27:01;;;;;;;6.00;1.45;;;;;;;15.87;71.97;102482.69;20827413;28;20128;-61
2022/07/16 23:37:23;;;;;;;7.30;1.50;;;;;;;15.78;72.17;102472.75;20835952;28;20049;-61
2022/07/16 23:47:44;;;;;;;4.05;1.90;;;;;;;15.57;73.12;102479.25;20833808;28;20038;-61
2022/07/16 23:58:06;;;;;;;;;;;;;;;15.41;75.63;102480.25;20832300;28;20056;-61
